»·PEaware :: DCM180 KSNA-KGCN

DCM180 :: KSNA-KGCN

FLIGHT INFORMATION

Flight Status: Arrived
Operator:
DotCom
More flights by this operator :: More flights under this callsign
Pilot: Etienne B. (28927)
Aircraft: AIRBUS A320
(A320)
More flights by this aircraft type
Origin: KSNA John Wayne-Orange Co
United States
Destination: KGCN Grand Canyon Natl Park
United States
More flights between these airports :: More routes between these airports
Route: PIGGN2 AVRRY EED
File this flight plan on PilotEdge
Remarks: RMK / SIMBRIEF
Altitude:
(Current/Filed)
37,000ft
Speed:
(Current/Filed)
437kts
Departed: 10-May-20 03:58 PM
Arrived: 10-May-20 04:52 PM
Distance/Time
Traveled:
313nm/0:53
Distance/Time
To Go:
Arrived

Flight Plot

Page will automatically refresh every two minutes.

Flight plan parsing failed; only flown route is shown


Map Options




Map Legend


Flown Route
Filed Route
Departure Airport
Arrival Airport
Navaid (VOR, NDB)
Fix

Horizontal Profiles

Position Reports

Time Latitude Longitude Heading Altitude Ground
Speed
10-May-20 15:39 33.680828 -117.861390 118 65ft 0kts
10-May-20 15:40 33.680828 -117.861390 118 65ft 0kts
10-May-20 15:41 33.680828 -117.861390 118 65ft 0kts
10-May-20 15:42 33.680828 -117.861390 118 65ft 0kts
10-May-20 15:43 33.680828 -117.861390 118 65ft 0kts
10-May-20 15:44 33.680828 -117.861390 118 65ft 0kts
10-May-20 15:45 33.680828 -117.861390 118 65ft 0kts
10-May-20 15:46 33.680828 -117.861390 118 65ft 0kts
10-May-20 15:47 33.680828 -117.861390 118 65ft 0kts
10-May-20 15:48 33.680828 -117.861390 118 65ft 0kts
10-May-20 15:49 33.680828 -117.861390 118 65ft 0kts
10-May-20 15:50 33.680972 -117.861628 138 65ft 2kts
10-May-20 15:51 33.681476 -117.861819 188 63ft 2kts
10-May-20 15:52 33.681721 -117.861715 209 65ft 0kts
10-May-20 15:53 33.681721 -117.861715 209 65ft 0kts
10-May-20 15:54 33.681584 -117.861809 209 63ft 0kts
10-May-20 15:55 33.680617 -117.862958 291 50ft 12kts
10-May-20 15:56 33.681381 -117.865027 263 45ft 8kts
10-May-20 15:57 33.659892 -117.878854 207 778ft 163kts
10-May-20 15:58 33.607776 -117.893533 180 3038ft 234kts
10-May-20 15:59 33.540069 -117.876012 153 5925ft 269kts
10-May-20 16:00 33.494989 -117.809110 112 9322ft 278kts
10-May-20 16:01 33.478689 -117.723145 70 12138ft 304kts
10-May-20 16:02 33.516869 -117.626263 65 13315ft 367kts
10-May-20 16:03 33.566665 -117.518425 62 14510ft 407kts
10-May-20 16:04 33.581098 -117.388614 95 16369ft 407kts
10-May-20 16:05 33.577898 -117.253451 91 18040ft 420kts
10-May-20 16:06 33.604241 -117.113309 78 19431ft 441kts
10-May-20 16:07 33.628246 -116.968096 94 20863ft 445kts
10-May-20 16:08 33.624395 -116.818008 94 22179ft 454kts
10-May-20 16:09 33.620331 -116.664994 94 23306ft 466kts
10-May-20 16:10 33.615976 -116.508101 94 24397ft 474kts
10-May-20 16:11 33.611354 -116.348949 95 25461ft 482kts
10-May-20 16:12 33.607155 -116.186831 95 26430ft 489kts
10-May-20 16:13 33.610795 -116.022956 77 27294ft 502kts
10-May-20 16:14 33.659604 -115.864536 71 28074ft 510kts
10-May-20 16:15 33.709465 -115.706564 71 29381ft 502kts
10-May-20 16:16 33.768164 -115.557147 49 30880ft 495kts
10-May-20 16:17 33.868491 -115.446596 40 32357ft 484kts
10-May-20 16:18 33.967661 -115.340641 41 33844ft 471kts
10-May-20 16:19 34.063817 -115.237498 41 35194ft 458kts
10-May-20 16:20 34.158534 -115.135544 40 36026ft 456kts
10-May-20 16:21 34.252750 -115.033838 40 36755ft 454kts
10-May-20 16:22 34.347546 -114.931160 39 36849ft 467kts
10-May-20 16:23 34.445753 -114.824458 39 36846ft 481kts
10-May-20 16:24 34.546126 -114.715055 39 36844ft 488kts
10-May-20 16:25 34.646845 -114.604918 39 36841ft 488kts
10-May-20 16:26 34.747381 -114.494516 41 36842ft 488kts
10-May-20 16:27 34.827076 -114.361159 55 36848ft 491kts
10-May-20 16:28 34.901534 -114.222896 56 36830ft 490kts
10-May-20 16:29 34.976078 -114.083975 55 36941ft 489kts
10-May-20 16:30 35.050396 -113.944924 54 37034ft 489kts
10-May-20 16:31 35.124253 -113.806186 54 37030ft 488kts
10-May-20 16:32 35.197976 -113.667147 54 37029ft 488kts
10-May-20 16:33 35.271507 -113.527915 54 37026ft 488kts
10-May-20 16:34 35.345026 -113.388152 54 37027ft 489kts
10-May-20 16:35 35.417922 -113.249014 55 36284ft 485kts
10-May-20 16:36 35.491024 -113.108896 55 31539ft 498kts
10-May-20 16:37 35.565321 -112.965903 56 26105ft 506kts
10-May-20 16:38 35.638800 -112.824037 56 23844ft 492kts
10-May-20 16:39 35.709272 -112.687401 57 19840ft 463kts
10-May-20 16:41 35.775543 -112.558355 57 15402ft 435kts
10-May-20 16:42 35.834274 -112.443710 58 13717ft 355kts
10-May-20 16:43 35.879899 -112.345161 61 11882ft 320kts
10-May-20 16:44 35.916395 -112.262966 61 11033ft 317kts
10-May-20 16:45 35.959338 -112.166954 53 10611ft 325kts
10-May-20 16:46 36.021759 -112.093119 36 8903ft 285kts
10-May-20 16:47 36.059589 -112.024731 101 8575ft 238kts
10-May-20 16:48 36.012185 -112.018244 257 8253ft 199kts
10-May-20 16:49 36.004941 -112.082652 243 8617ft 179kts
10-May-20 16:50 35.973375 -112.124601 225 6996ft 161kts
10-May-20 16:51 35.950246 -112.149269 225 6587ft 44kts
10-May-20 16:52 35.947453 -112.151632 142 6574ft 2kts
10-May-20 16:53 35.947251 -112.150624 51 6580ft 9kts

Navigation Log

Ident Type
Flight plan parsing failed, navigation log unavailable